sensor_id;sensor_type;location;lat;lon;timestamp;P1;durP1;ratioP1;P2;durP2;ratioP2
24635;SDS011;12772;49.794;10.024;2022-09-20T00:03:26;3.97;;;1.88;;
24635;SDS011;12772;49.794;10.024;2022-09-20T00:07:28;4.47;;;1.65;;
24635;SDS011;12772;49.794;10.024;2022-09-20T00:11:31;2.10;;;1.77;;
24635;SDS011;12772;49.794;10.024;2022-09-20T00:15:39;5.50;;;2.30;;
24635;SDS011;12772;49.794;10.024;2022-09-20T00:19:45;5.15;;;1.83;;
24635;SDS011;12772;49.794;10.024;2022-09-20T00:23:48;2.75;;;1.83;;
24635;SDS011;12772;49.794;10.024;2022-09-20T00:27:50;5.03;;;1.67;;
24635;SDS011;12772;49.794;10.024;2022-09-20T00:31:52;5.30;;;1.92;;
24635;SDS011;12772;49.794;10.024;2022-09-20T00:35:54;3.35;;;1.55;;
24635;SDS011;12772;49.794;10.024;2022-09-20T00:39:59;5.68;;;1.75;;
24635;SDS011;12772;49.794;10.024;2022-09-20T00:44:01;3.80;;;1.77;;
24635;SDS011;12772;49.794;10.024;2022-09-20T00:48:25;2.80;;;1.52;;
24635;SDS011;12772;49.794;10.024;2022-09-20T00:52:31;2.03;;;1.50;;
24635;SDS011;12772;49.794;10.024;2022-09-20T00:56:37;3.30;;;1.70;;
24635;SDS011;12772;49.794;10.024;2022-09-20T01:00:43;1.85;;;1.73;;
24635;SDS011;12772;49.794;10.024;2022-09-20T01:04:47;3.60;;;1.98;;
24635;SDS011;12772;49.794;10.024;2022-09-20T01:08:50;6.03;;;2.20;;
24635;SDS011;12772;49.794;10.024;2022-09-20T01:12:55;3.22;;;1.67;;
24635;SDS011;12772;49.794;10.024;2022-09-20T01:16:58;3.30;;;1.40;;
24635;SDS011;12772;49.794;10.024;2022-09-20T01:21:04;3.28;;;1.73;;
24635;SDS011;12772;49.794;10.024;2022-09-20T01:25:14;2.92;;;1.67;;
24635;SDS011;12772;49.794;10.024;2022-09-20T01:33:29;2.15;;;1.73;;
24635;SDS011;12772;49.794;10.024;2022-09-20T01:42:12;4.32;;;1.50;;
24635;SDS011;12772;49.794;10.024;2022-09-20T01:46:29;4.47;;;2.00;;
24635;SDS011;12772;49.794;10.024;2022-09-20T02:17:15;1.42;;;1.33;;
24635;SDS011;12772;49.794;10.024;2022-09-20T02:21:35;3.33;;;1.70;;
24635;SDS011;12772;49.794;10.024;2022-09-20T02:30:14;4.13;;;1.70;;
24635;SDS011;12772;49.794;10.024;2022-09-20T02:38:53;3.83;;;1.55;;
24635;SDS011;12772;49.794;10.024;2022-09-20T02:43:20;2.40;;;1.70;;
24635;SDS011;12772;49.794;10.024;2022-09-20T02:47:34;2.67;;;1.73;;
24635;SDS011;12772;49.794;10.024;2022-09-20T02:51:55;4.22;;;1.85;;
24635;SDS011;12772;49.794;10.024;2022-09-20T02:56:04;2.75;;;1.77;;
24635;SDS011;12772;49.794;10.024;2022-09-20T03:00:16;5.50;;;2.20;;
24635;SDS011;12772;49.794;10.024;2022-09-20T03:12:54;2.85;;;1.70;;
24635;SDS011;12772;49.794;10.024;2022-09-20T03:21:20;1.98;;;1.50;;
24635;SDS011;12772;49.794;10.024;2022-09-20T03:25:54;2.28;;;1.50;;
24635;SDS011;12772;49.794;10.024;2022-09-20T03:30:12;3.60;;;1.90;;
24635;SDS011;12772;49.794;10.024;2022-09-20T03:39:22;2.70;;;1.92;;
24635;SDS011;12772;49.794;10.024;2022-09-20T03:48:11;2.65;;;2.00;;
24635;SDS011;12772;49.794;10.024;2022-09-20T04:01:26;4.90;;;2.22;;
24635;SDS011;12772;49.794;10.024;2022-09-20T04:10:01;4.68;;;2.45;;
24635;SDS011;12772;49.794;10.024;2022-09-20T04:14:25;6.32;;;2.92;;
24635;SDS011;12772;49.794;10.024;2022-09-20T04:27:57;3.92;;;2.80;;
24635;SDS011;12772;49.794;10.024;2022-09-20T04:32:08;4.30;;;2.75;;
24635;SDS011;12772;49.794;10.024;2022-09-20T04:36:35;4.55;;;2.53;;
24635;SDS011;12772;49.794;10.024;2022-09-20T04:58:18;6.22;;;3.13;;
24635;SDS011;12772;49.794;10.024;2022-09-20T05:15:34;6.32;;;3.00;;
24635;SDS011;12772;49.794;10.024;2022-09-20T05:24:22;6.68;;;3.03;;
24635;SDS011;12772;49.794;10.024;2022-09-20T05:28:51;5.55;;;2.92;;
24635;SDS011;12772;49.794;10.024;2022-09-20T06:00:09;9.07;;;3.35;;
24635;SDS011;12772;49.794;10.024;2022-09-20T06:04:33;5.68;;;3.10;;
24635;SDS011;12772;49.794;10.024;2022-09-20T06:13:25;7.25;;;3.42;;
24635;SDS011;12772;49.794;10.024;2022-09-20T06:22:04;6.07;;;2.97;;
24635;SDS011;12772;49.794;10.024;2022-09-20T06:26:25;7.97;;;3.80;;
24635;SDS011;12772;49.794;10.024;2022-09-20T06:30:33;5.68;;;3.05;;
24635;SDS011;12772;49.794;10.024;2022-09-20T06:34:39;6.85;;;3.40;;
24635;SDS011;12772;49.794;10.024;2022-09-20T06:38:47;6.72;;;3.40;;
24635;SDS011;12772;49.794;10.024;2022-09-20T06:43:25;11.32;;;3.92;;
24635;SDS011;12772;49.794;10.024;2022-09-20T06:47:30;6.10;;;3.28;;
24635;SDS011;12772;49.794;10.024;2022-09-20T06:51:33;6.65;;;3.00;;
24635;SDS011;12772;49.794;10.024;2022-09-20T06:55:37;7.10;;;3.17;;
24635;SDS011;12772;49.794;10.024;2022-09-20T06:59:41;5.82;;;3.35;;
24635;SDS011;12772;49.794;10.024;2022-09-20T07:03:43;7.30;;;3.70;;
24635;SDS011;12772;49.794;10.024;2022-09-20T07:07:46;10.63;;;4.18;;
24635;SDS011;12772;49.794;10.024;2022-09-20T07:11:48;12.88;;;4.47;;
24635;SDS011;12772;49.794;10.024;2022-09-20T07:15:50;9.30;;;4.30;;
24635;SDS011;12772;49.794;10.024;2022-09-20T07:19:52;12.57;;;4.38;;
24635;SDS011;12772;49.794;10.024;2022-09-20T07:23:56;7.05;;;3.63;;
24635;SDS011;12772;49.794;10.024;2022-09-20T07:27:58;6.55;;;2.83;;
24635;SDS011;12772;49.794;10.024;2022-09-20T07:32:00;8.05;;;2.97;;
24635;SDS011;12772;49.794;10.024;2022-09-20T07:36:02;5.00;;;2.65;;
24635;SDS011;12772;49.794;10.024;2022-09-20T07:40:04;5.13;;;2.20;;
24635;SDS011;12772;49.794;10.024;2022-09-20T07:44:07;6.55;;;2.47;;
24635;SDS011;12772;49.794;10.024;2022-09-20T07:48:21;4.75;;;2.25;;
24635;SDS011;12772;49.794;10.024;2022-09-20T07:52:25;5.72;;;2.20;;
24635;SDS011;12772;49.794;10.024;2022-09-20T07:56:27;6.97;;;2.03;;
24635;SDS011;12772;49.794;10.024;2022-09-20T08:00:29;4.18;;;1.92;;
24635;SDS011;12772;49.794;10.024;2022-09-20T08:04:31;7.18;;;2.40;;
24635;SDS011;12772;49.794;10.024;2022-09-20T08:08:37;8.65;;;2.10;;
24635;SDS011;12772;49.794;10.024;2022-09-20T08:12:40;6.22;;;2.40;;
24635;SDS011;12772;49.794;10.024;2022-09-20T08:16:43;5.50;;;2.28;;
24635;SDS011;12772;49.794;10.024;2022-09-20T08:20:49;2.80;;;1.90;;
24635;SDS011;12772;49.794;10.024;2022-09-20T08:24:51;5.93;;;2.00;;
24635;SDS011;12772;49.794;10.024;2022-09-20T08:28:53;3.13;;;1.55;;
24635;SDS011;12772;49.794;10.024;2022-09-20T08:32:57;4.97;;;2.10;;
24635;SDS011;12772;49.794;10.024;2022-09-20T08:36:59;2.25;;;1.55;;
24635;SDS011;12772;49.794;10.024;2022-09-20T08:41:02;2.95;;;2.08;;
24635;SDS011;12772;49.794;10.024;2022-09-20T08:45:16;4.30;;;1.60;;
24635;SDS011;12772;49.794;10.024;2022-09-20T08:49:25;4.25;;;1.73;;
24635;SDS011;12772;49.794;10.024;2022-09-20T08:53:28;4.53;;;1.90;;
24635;SDS011;12772;49.794;10.024;2022-09-20T08:57:31;4.55;;;1.98;;
24635;SDS011;12772;49.794;10.024;2022-09-20T09:01:34;3.42;;;1.88;;
24635;SDS011;12772;49.794;10.024;2022-09-20T09:05:37;9.38;;;2.72;;
24635;SDS011;12772;49.794;10.024;2022-09-20T09:09:47;4.28;;;2.15;;
24635;SDS011;12772;49.794;10.024;2022-09-20T09:13:53;4.63;;;2.17;;
24635;SDS011;12772;49.794;10.024;2022-09-20T09:18:00;3.55;;;1.92;;
24635;SDS011;12772;49.794;10.024;2022-09-20T09:22:03;4.07;;;1.95;;
24635;SDS011;12772;49.794;10.024;2022-09-20T09:26:13;7.18;;;2.03;;
24635;SDS011;12772;49.794;10.024;2022-09-20T09:30:22;4.10;;;1.92;;
24635;SDS011;12772;49.794;10.024;2022-09-20T09:34:32;4.20;;;1.60;;
24635;SDS011;12772;49.794;10.024;2022-09-20T09:38:38;4.50;;;2.13;;
24635;SDS011;12772;49.794;10.024;2022-09-20T09:42:51;3.38;;;1.88;;
24635;SDS011;12772;49.794;10.024;2022-09-20T09:46:57;3.00;;;1.50;;
24635;SDS011;12772;49.794;10.024;2022-09-20T09:51:05;5.65;;;2.28;;
24635;SDS011;12772;49.794;10.024;2022-09-20T09:55:11;3.30;;;1.65;;
24635;SDS011;12772;49.794;10.024;2022-09-20T09:59:29;3.35;;;1.35;;
24635;SDS011;12772;49.794;10.024;2022-09-20T10:08:12;2.92;;;1.85;;
24635;SDS011;12772;49.794;10.024;2022-09-20T10:25:15;3.83;;;1.38;;
24635;SDS011;12772;49.794;10.024;2022-09-20T10:34:42;3.20;;;1.50;;
24635;SDS011;12772;49.794;10.024;2022-09-20T10:38:36;4.90;;;2.13;;
24635;SDS011;12772;49.794;10.024;2022-09-20T10:42:55;3.75;;;1.60;;
24635;SDS011;12772;49.794;10.024;2022-09-20T10:47:17;4.75;;;1.55;;
24635;SDS011;12772;49.794;10.024;2022-09-20T10:51:23;5.93;;;2.28;;
24635;SDS011;12772;49.794;10.024;2022-09-20T10:55:56;5.97;;;1.60;;
24635;SDS011;12772;49.794;10.024;2022-09-20T11:09:02;4.07;;;1.50;;
24635;SDS011;12772;49.794;10.024;2022-09-20T11:13:14;4.03;;;1.63;;
24635;SDS011;12772;49.794;10.024;2022-09-20T11:17:29;2.22;;;1.40;;
24635;SDS011;12772;49.794;10.024;2022-09-20T11:21:37;1.98;;;1.80;;
24635;SDS011;12772;49.794;10.024;2022-09-20T11:25:53;8.70;;;1.98;;
24635;SDS011;12772;49.794;10.024;2022-09-20T11:30:03;3.03;;;1.75;;
24635;SDS011;12772;49.794;10.024;2022-09-20T11:38:20;4.00;;;1.67;;
24635;SDS011;12772;49.794;10.024;2022-09-20T11:42:34;3.78;;;1.60;;
24635;SDS011;12772;49.794;10.024;2022-09-20T11:46:42;4.07;;;1.77;;
24635;SDS011;12772;49.794;10.024;2022-09-20T11:55:11;4.45;;;1.90;;
24635;SDS011;12772;49.794;10.024;2022-09-20T12:03:32;3.20;;;1.60;;
24635;SDS011;12772;49.794;10.024;2022-09-20T12:07:37;3.33;;;1.80;;
24635;SDS011;12772;49.794;10.024;2022-09-20T12:11:44;5.47;;;1.85;;
24635;SDS011;12772;49.794;10.024;2022-09-20T12:15:50;4.50;;;2.17;;
24635;SDS011;12772;49.794;10.024;2022-09-20T12:20:00;4.57;;;1.50;;
24635;SDS011;12772;49.794;10.024;2022-09-20T12:24:09;3.65;;;1.73;;
24635;SDS011;12772;49.794;10.024;2022-09-20T12:28:19;5.32;;;1.80;;
24635;SDS011;12772;49.794;10.024;2022-09-20T12:32:45;3.97;;;2.10;;
24635;SDS011;12772;49.794;10.024;2022-09-20T12:41:06;5.07;;;2.15;;
24635;SDS011;12772;49.794;10.024;2022-09-20T12:45:14;5.63;;;1.95;;
24635;SDS011;12772;49.794;10.024;2022-09-20T12:49:25;2.25;;;1.50;;
24635;SDS011;12772;49.794;10.024;2022-09-20T12:54:01;4.35;;;1.63;;
24635;SDS011;12772;49.794;10.024;2022-09-20T13:07:09;6.07;;;2.70;;
24635;SDS011;12772;49.794;10.024;2022-09-20T13:11:53;17.63;;;10.85;;
24635;SDS011;12772;49.794;10.024;2022-09-20T13:15:56;21.95;;;12.00;;
24635;SDS011;12772;49.794;10.024;2022-09-20T13:20:00;20.27;;;9.02;;
24635;SDS011;12772;49.794;10.024;2022-09-20T13:24:03;8.00;;;4.88;;
24635;SDS011;12772;49.794;10.024;2022-09-20T13:28:41;6.85;;;3.38;;
24635;SDS011;12772;49.794;10.024;2022-09-20T13:32:40;5.35;;;2.20;;
24635;SDS011;12772;49.794;10.024;2022-09-20T13:36:42;3.85;;;2.15;;
24635;SDS011;12772;49.794;10.024;2022-09-20T13:40:44;2.95;;;1.50;;
24635;SDS011;12772;49.794;10.024;2022-09-20T13:44:47;2.40;;;1.90;;
24635;SDS011;12772;49.794;10.024;2022-09-20T13:49:11;2.58;;;1.98;;
24635;SDS011;12772;49.794;10.024;2022-09-20T13:53:21;1.20;;;1.08;;
24635;SDS011;12772;49.794;10.024;2022-09-20T13:57:25;4.93;;;1.50;;
24635;SDS011;12772;49.794;10.024;2022-09-20T14:01:32;1.90;;;1.10;;
24635;SDS011;12772;49.794;10.024;2022-09-20T14:05:35;1.48;;;1.10;;
24635;SDS011;12772;49.794;10.024;2022-09-20T14:09:37;3.58;;;1.60;;
24635;SDS011;12772;49.794;10.024;2022-09-20T14:13:40;2.40;;;1.23;;
24635;SDS011;12772;49.794;10.024;2022-09-20T14:17:48;4.82;;;3.30;;
24635;SDS011;12772;49.794;10.024;2022-09-20T14:21:52;3.08;;;2.30;;
24635;SDS011;12772;49.794;10.024;2022-09-20T14:30:35;1.30;;;1.00;;
24635;SDS011;12772;49.794;10.024;2022-09-20T14:34:37;1.65;;;0.95;;
24635;SDS011;12772;49.794;10.024;2022-09-20T14:38:42;1.65;;;0.90;;
24635;SDS011;12772;49.794;10.024;2022-09-20T14:42:46;1.60;;;0.90;;
24635;SDS011;12772;49.794;10.024;2022-09-20T14:46:54;2.13;;;0.82;;
24635;SDS011;12772;49.794;10.024;2022-09-20T14:55:18;0.73;;;0.73;;
24635;SDS011;12772;49.794;10.024;2022-09-20T14:59:34;1.65;;;0.85;;
24635;SDS011;12772;49.794;10.024;2022-09-20T15:03:39;0.65;;;0.65;;
24635;SDS011;12772;49.794;10.024;2022-09-20T15:07:42;1.20;;;0.93;;
24635;SDS011;12772;49.794;10.024;2022-09-20T15:11:44;1.35;;;0.80;;
24635;SDS011;12772;49.794;10.024;2022-09-20T15:15:50;1.27;;;1.05;;
24635;SDS011;12772;49.794;10.024;2022-09-20T15:19:53;1.30;;;1.20;;
24635;SDS011;12772;49.794;10.024;2022-09-20T15:23:55;1.90;;;1.20;;
24635;SDS011;12772;49.794;10.024;2022-09-20T15:27:58;3.30;;;2.10;;
24635;SDS011;12772;49.794;10.024;2022-09-20T15:32:00;6.55;;;4.50;;
24635;SDS011;12772;49.794;10.024;2022-09-20T15:36:04;3.42;;;3.13;;
24635;SDS011;12772;49.794;10.024;2022-09-20T15:40:07;2.70;;;2.50;;
24635;SDS011;12772;49.794;10.024;2022-09-20T15:44:09;2.40;;;1.48;;
24635;SDS011;12772;49.794;10.024;2022-09-20T15:48:11;2.13;;;1.38;;
24635;SDS011;12772;49.794;10.024;2022-09-20T15:52:14;1.67;;;1.23;;
24635;SDS011;12772;49.794;10.024;2022-09-20T15:56:35;1.25;;;1.15;;
24635;SDS011;12772;49.794;10.024;2022-09-20T16:00:39;1.20;;;1.10;;
24635;SDS011;12772;49.794;10.024;2022-09-20T16:04:41;1.05;;;0.95;;
24635;SDS011;12772;49.794;10.024;2022-09-20T16:08:43;1.23;;;1.00;;
24635;SDS011;12772;49.794;10.024;2022-09-20T16:12:45;0.90;;;0.90;;
24635;SDS011;12772;49.794;10.024;2022-09-20T16:16:47;0.88;;;0.85;;
24635;SDS011;12772;49.794;10.024;2022-09-20T16:20:49;2.72;;;1.30;;
24635;SDS011;12772;49.794;10.024;2022-09-20T16:24:52;8.93;;;5.13;;
24635;SDS011;12772;49.794;10.024;2022-09-20T16:28:55;3.22;;;1.90;;
24635;SDS011;12772;49.794;10.024;2022-09-20T16:32:57;2.63;;;1.67;;
24635;SDS011;12772;49.794;10.024;2022-09-20T16:41:15;1.95;;;1.38;;
24635;SDS011;12772;49.794;10.024;2022-09-20T16:45:17;2.40;;;1.77;;
24635;SDS011;12772;49.794;10.024;2022-09-20T16:49:19;5.20;;;2.72;;
24635;SDS011;12772;49.794;10.024;2022-09-20T16:53:21;4.38;;;2.00;;
24635;SDS011;12772;49.794;10.024;2022-09-20T16:57:23;2.92;;;2.10;;
24635;SDS011;12772;49.794;10.024;2022-09-20T17:01:25;2.70;;;2.47;;
24635;SDS011;12772;49.794;10.024;2022-09-20T17:05:28;3.63;;;2.55;;
24635;SDS011;12772;49.794;10.024;2022-09-20T17:09:29;2.92;;;2.03;;
24635;SDS011;12772;49.794;10.024;2022-09-20T17:13:32;1.95;;;1.85;;
24635;SDS011;12772;49.794;10.024;2022-09-20T17:17:38;1.30;;;1.20;;
24635;SDS011;12772;49.794;10.024;2022-09-20T17:21:42;2.40;;;1.13;;
24635;SDS011;12772;49.794;10.024;2022-09-20T17:25:59;2.35;;;2.00;;
24635;SDS011;12772;49.794;10.024;2022-09-20T17:30:04;2.50;;;2.20;;
24635;SDS011;12772;49.794;10.024;2022-09-20T17:34:10;2.13;;;1.92;;
24635;SDS011;12772;49.794;10.024;2022-09-20T17:38:13;3.10;;;1.75;;
24635;SDS011;12772;49.794;10.024;2022-09-20T17:42:15;2.33;;;1.80;;
24635;SDS011;12772;49.794;10.024;2022-09-20T17:46:18;2.85;;;1.88;;
24635;SDS011;12772;49.794;10.024;2022-09-20T17:50:22;2.67;;;2.00;;
24635;SDS011;12772;49.794;10.024;2022-09-20T17:54:24;2.67;;;1.52;;
24635;SDS011;12772;49.794;10.024;2022-09-20T17:58:26;2.05;;;1.83;;
24635;SDS011;12772;49.794;10.024;2022-09-20T18:02:29;2.47;;;1.65;;
24635;SDS011;12772;49.794;10.024;2022-09-20T18:10:35;3.05;;;1.88;;
24635;SDS011;12772;49.794;10.024;2022-09-20T18:14:37;1.90;;;1.40;;
24635;SDS011;12772;49.794;10.024;2022-09-20T18:18:39;5.55;;;1.40;;
24635;SDS011;12772;49.794;10.024;2022-09-20T18:22:46;4.43;;;1.85;;
24635;SDS011;12772;49.794;10.024;2022-09-20T18:26:48;2.55;;;2.25;;
24635;SDS011;12772;49.794;10.024;2022-09-20T18:31:03;3.55;;;2.70;;
24635;SDS011;12772;49.794;10.024;2022-09-20T18:35:05;2.80;;;2.60;;
24635;SDS011;12772;49.794;10.024;2022-09-20T18:39:07;3.47;;;3.13;;
24635;SDS011;12772;49.794;10.024;2022-09-20T18:43:09;3.97;;;3.40;;
24635;SDS011;12772;49.794;10.024;2022-09-20T18:47:11;6.00;;;3.92;;
24635;SDS011;12772;49.794;10.024;2022-09-20T18:51:13;6.25;;;3.10;;
24635;SDS011;12772;49.794;10.024;2022-09-20T18:55:16;5.57;;;3.53;;
24635;SDS011;12772;49.794;10.024;2022-09-20T18:59:19;6.65;;;4.55;;
24635;SDS011;12772;49.794;10.024;2022-09-20T19:03:26;4.93;;;3.90;;
24635;SDS011;12772;49.794;10.024;2022-09-20T19:07:40;6.13;;;4.47;;
24635;SDS011;12772;49.794;10.024;2022-09-20T19:11:54;8.98;;;5.88;;
24635;SDS011;12772;49.794;10.024;2022-09-20T19:16:10;8.82;;;5.45;;
24635;SDS011;12772;49.794;10.024;2022-09-20T19:20:42;8.27;;;4.88;;
24635;SDS011;12772;49.794;10.024;2022-09-20T19:29:21;9.85;;;6.40;;
24635;SDS011;12772;49.794;10.024;2022-09-20T19:33:26;10.88;;;6.82;;
24635;SDS011;12772;49.794;10.024;2022-09-20T19:37:44;9.23;;;6.63;;
24635;SDS011;12772;49.794;10.024;2022-09-20T19:51:00;12.77;;;6.25;;
24635;SDS011;12772;49.794;10.024;2022-09-20T19:55:10;9.70;;;6.68;;
24635;SDS011;12772;49.794;10.024;2022-09-20T19:59:14;11.25;;;6.82;;
24635;SDS011;12772;49.794;10.024;2022-09-20T20:03:17;9.48;;;6.43;;
24635;SDS011;12772;49.794;10.024;2022-09-20T20:15:52;10.57;;;7.82;;
24635;SDS011;12772;49.794;10.024;2022-09-20T20:20:14;12.30;;;7.45;;
24635;SDS011;12772;49.794;10.024;2022-09-20T20:28:21;20.50;;;12.60;;
24635;SDS011;12772;49.794;10.024;2022-09-20T20:32:23;20.40;;;12.30;;
24635;SDS011;12772;49.794;10.024;2022-09-20T20:36:25;16.77;;;11.32;;
24635;SDS011;12772;49.794;10.024;2022-09-20T20:40:27;13.93;;;10.05;;
24635;SDS011;12772;49.794;10.024;2022-09-20T20:44:30;21.48;;;13.80;;
24635;SDS011;12772;49.794;10.024;2022-09-20T20:48:35;22.40;;;14.60;;
24635;SDS011;12772;49.794;10.024;2022-09-20T20:52:37;24.58;;;13.30;;
24635;SDS011;12772;49.794;10.024;2022-09-20T20:56:39;19.17;;;11.70;;
24635;SDS011;12772;49.794;10.024;2022-09-20T21:00:41;20.80;;;11.63;;
24635;SDS011;12772;49.794;10.024;2022-09-20T21:04:44;17.23;;;11.00;;
24635;SDS011;12772;49.794;10.024;2022-09-20T21:08:46;19.38;;;11.43;;
24635;SDS011;12772;49.794;10.024;2022-09-20T21:12:52;26.83;;;14.38;;
24635;SDS011;12772;49.794;10.024;2022-09-20T21:16:54;24.17;;;15.30;;
24635;SDS011;12772;49.794;10.024;2022-09-20T21:20:56;25.38;;;17.23;;
24635;SDS011;12772;49.794;10.024;2022-09-20T21:24:58;19.17;;;11.93;;
24635;SDS011;12772;49.794;10.024;2022-09-20T21:29:01;13.65;;;7.45;;
24635;SDS011;12772;49.794;10.024;2022-09-20T21:33:04;9.98;;;6.32;;
24635;SDS011;12772;49.794;10.024;2022-09-20T21:37:06;11.38;;;6.57;;
24635;SDS011;12772;49.794;10.024;2022-09-20T21:45:14;7.55;;;4.70;;
24635;SDS011;12772;49.794;10.024;2022-09-20T21:49:20;7.88;;;5.50;;
24635;SDS011;12772;49.794;10.024;2022-09-20T21:53:22;11.57;;;5.80;;
24635;SDS011;12772;49.794;10.024;2022-09-20T21:57:24;5.60;;;4.22;;
24635;SDS011;12772;49.794;10.024;2022-09-20T22:01:26;4.40;;;3.53;;
24635;SDS011;12772;49.794;10.024;2022-09-20T22:05:32;4.88;;;3.40;;
24635;SDS011;12772;49.794;10.024;2022-09-20T22:09:34;8.05;;;3.33;;
24635;SDS011;12772;49.794;10.024;2022-09-20T22:13:39;5.55;;;3.25;;
24635;SDS011;12772;49.794;10.024;2022-09-20T22:17:43;4.78;;;3.55;;
24635;SDS011;12772;49.794;10.024;2022-09-20T22:21:45;4.30;;;3.60;;
24635;SDS011;12772;49.794;10.024;2022-09-20T22:25:56;5.82;;;4.32;;
24635;SDS011;12772;49.794;10.024;2022-09-20T22:30:06;6.43;;;4.82;;
24635;SDS011;12772;49.794;10.024;2022-09-20T22:34:09;9.85;;;5.60;;
24635;SDS011;12772;49.794;10.024;2022-09-20T22:38:16;9.95;;;6.00;;
24635;SDS011;12772;49.794;10.024;2022-09-20T22:42:18;9.90;;;5.18;;
24635;SDS011;12772;49.794;10.024;2022-09-20T22:46:22;7.28;;;5.28;;
24635;SDS011;12772;49.794;10.024;2022-09-20T22:50:25;5.93;;;4.50;;
24635;SDS011;12772;49.794;10.024;2022-09-20T22:54:27;6.55;;;3.80;;
24635;SDS011;12772;49.794;10.024;2022-09-20T22:58:32;6.80;;;3.70;;
24635;SDS011;12772;49.794;10.024;2022-09-20T23:02:36;5.65;;;3.42;;
24635;SDS011;12772;49.794;10.024;2022-09-20T23:06:39;4.60;;;3.60;;
24635;SDS011;12772;49.794;10.024;2022-09-20T23:10:46;4.68;;;3.47;;
24635;SDS011;12772;49.794;10.024;2022-09-20T23:14:48;7.43;;;4.10;;
24635;SDS011;12772;49.794;10.024;2022-09-20T23:18:51;5.57;;;4.40;;
24635;SDS011;12772;49.794;10.024;2022-09-20T23:22:53;9.65;;;3.72;;
24635;SDS011;12772;49.794;10.024;2022-09-20T23:26:55;6.55;;;4.20;;
24635;SDS011;12772;49.794;10.024;2022-09-20T23:31:05;8.45;;;4.47;;
24635;SDS011;12772;49.794;10.024;2022-09-20T23:35:09;6.97;;;4.53;;
24635;SDS011;12772;49.794;10.024;2022-09-20T23:39:11;5.32;;;4.13;;
24635;SDS011;12772;49.794;10.024;2022-09-20T23:43:13;3.88;;;3.47;;
24635;SDS011;12772;49.794;10.024;2022-09-20T23:47:15;5.82;;;3.55;;
24635;SDS011;12772;49.794;10.024;2022-09-20T23:51:18;5.22;;;4.00;;
24635;SDS011;12772;49.794;10.024;2022-09-20T23:55:21;6.38;;;4.38;;
24635;SDS011;12772;49.794;10.024;2022-09-20T23:59:23;8.85;;;4.95;;
